Time;durP1;ratioP1;P1;durP2;ratioP2;P2;SDS_P1;SDS_P2;PMS_P1;PMS_P2;Temp;Humidity;BMP_temperature;BMP_pressure;BME280_temperature;BME280_humidity;BME280_pressure;Samples;Min_cycle;Max_cycle;Signal;HPM_P1;HPM_P2
2023/03/03 00:00:11;;;;;;;70.10;37.00;;;;;;;0.49;100.00;101472.53;4972880;28;20061;-80
2023/03/03 00:02:40;;;;;;;71.97;36.90;;;;;;;0.44;100.00;101470.19;4971313;28;20058;-79
2023/03/03 00:05:07;;;;;;;71.43;37.47;;;;;;;0.41;100.00;101472.09;4970566;28;20051;-79
2023/03/03 00:07:34;;;;;;;72.53;36.55;;;;;;;0.38;100.00;101485.09;4970220;28;20051;-80
2023/03/03 00:10:03;;;;;;;71.57;38.15;;;;;;;0.38;100.00;101482.53;4971571;28;20081;-80
2023/03/03 00:12:31;;;;;;;69.15;37.63;;;;;;;0.42;100.00;101468.59;4971322;28;20055;-80
2023/03/03 00:14:58;;;;;;;70.20;37.63;;;;;;;0.27;100.00;101463.25;4973465;28;20059;-81
2023/03/03 00:17:27;;;;;;;76.13;38.25;;;;;;;0.38;100.00;101477.38;4953225;28;20083;-78
2023/03/03 00:19:54;;;;;;;75.32;41.03;;;;;;;0.38;100.00;101485.94;4960743;28;20043;-81
2023/03/03 00:22:30;;;;;;;79.00;41.05;;;;;;;0.24;100.00;101470.25;4960648;28;20083;-80
2023/03/03 00:25:00;;;;;;;75.53;39.78;;;;;;;0.20;100.00;101482.44;4960399;28;20505;-80
2023/03/03 00:27:30;;;;;;;74.75;39.88;;;;;;;0.14;100.00;101482.72;4961026;28;20063;-81
2023/03/03 00:29:59;;;;;;;71.55;39.08;;;;;;;0.15;100.00;101492.09;4960884;28;20106;-80
2023/03/03 00:32:31;;;;;;;76.60;39.65;;;;;;;0.08;100.00;101482.97;4961589;28;20057;-80
2023/03/03 00:35:16;;;;;;;75.47;39.93;;;;;;;0.09;100.00;101484.66;4962007;28;20126;-81
2023/03/03 00:37:43;;;;;;;74.32;40.10;;;;;;;0.07;100.00;101489.03;4961268;28;20085;-81
2023/03/03 00:40:21;;;;;;;76.10;40.00;;;;;;;0.08;100.00;101492.44;4959513;28;20051;-81
2023/03/03 00:42:51;;;;;;;72.05;39.80;;;;;;;0.01;100.00;101491.88;4953898;29;20043;-81
2023/03/03 00:45:27;;;;;;;74.10;38.75;;;;;;;-0.15;100.00;101488.31;4958804;28;20047;-80
2023/03/03 00:47:57;;;;;;;81.07;39.30;;;;;;;-0.07;100.00;101493.97;4952770;28;20051;-81
2023/03/03 00:50:40;;;;;;;78.60;40.80;;;;;;;-0.08;100.00;101503.44;4958628;28;20106;-81
2023/03/03 00:53:11;;;;;;;56.38;30.65;;;;;;;-0.20;100.00;101492.81;4961635;28;20071;-81
2023/03/03 00:55:38;;;;;;;74.47;38.67;;;;;;;-0.19;100.00;101509.94;4953882;29;20074;-80
2023/03/03 00:58:05;;;;;;;75.35;39.10;;;;;;;-0.23;100.00;101508.38;4960463;28;20059;-80
2023/03/03 01:00:36;;;;;;;75.00;38.88;;;;;;;-0.26;100.00;101509.34;4961102;28;20126;-81
2023/03/03 01:03:06;;;;;;;85.53;41.53;;;;;;;-0.32;100.00;101509.59;4962073;28;20121;-80
2023/03/03 01:05:33;;;;;;;79.88;39.08;;;;;;;-0.32;100.00;101507.03;4961802;28;20111;-81
2023/03/03 01:08:02;;;;;;;83.15;41.65;;;;;;;-0.31;100.00;101515.59;4961086;28;20110;-81
2023/03/03 01:10:32;;;;;;;79.70;40.03;;;;;;;-0.32;100.00;101514.75;4960899;28;20110;-80
2023/03/03 01:12:59;;;;;;;81.15;40.53;;;;;;;-0.42;100.00;101503.19;4959573;28;20054;-81
2023/03/03 01:15:25;;;;;;;86.95;42.30;;;;;;;-0.46;100.00;101501.63;4960718;28;20055;-81
2023/03/03 01:17:52;;;;;;;86.95;42.47;;;;;;;-0.45;100.00;101508.44;4959902;28;20415;-81
2023/03/03 01:20:20;;;;;;;85.25;41.65;;;;;;;-0.49;100.00;101512.91;4960328;28;20047;-81
2023/03/03 01:22:47;;;;;;;83.97;42.88;;;;;;;-0.49;100.00;101512.91;4960828;28;20051;-82
2023/03/03 01:25:14;;;;;;;85.40;41.75;;;;;;;-0.50;100.00;101511.25;4960387;28;20055;-81
2023/03/03 01:27:40;;;;;;;84.65;42.97;;;;;;;-0.56;100.00;101511.50;4960449;28;20110;-80
2023/03/03 01:30:09;;;;;;;85.35;41.10;;;;;;;-0.58;100.00;101526.13;4960647;28;20051;-78
2023/03/03 01:32:35;;;;;;;92.32;43.42;;;;;;;-0.56;100.00;101515.78;4954735;29;20055;-80
2023/03/03 01:35:02;;;;;;;85.72;42.17;;;;;;;-0.61;100.00;101518.56;4960079;28;20082;-80
2023/03/03 01:37:30;;;;;;;87.82;42.65;;;;;;;-0.65;100.00;101519.56;4960682;28;20062;-79
2023/03/03 01:39:57;;;;;;;86.82;42.13;;;;;;;-0.67;100.00;101523.94;4961918;28;20111;-79
2023/03/03 01:42:27;;;;;;;96.53;43.90;;;;;;;-0.69;100.00;101534.28;4959865;28;20130;-79
2023/03/03 01:45:13;;;;;;;85.13;40.88;;;;;;;-0.75;100.00;101526.81;4959100;28;20059;-81
2023/03/03 01:47:46;;;;;;;89.88;42.97;;;;;;;-0.73;100.00;101519.88;4954842;29;20048;-81
2023/03/03 01:50:14;;;;;;;95.32;42.95;;;;;;;-0.82;100.00;101515.09;4958546;28;20134;-81
2023/03/03 01:52:46;;;;;;;95.45;44.15;;;;;;;-0.82;100.00;101522.81;4959290;28;20051;-80
2023/03/03 01:55:18;;;;;;;86.63;41.53;;;;;;;-0.81;100.00;101518.50;4959715;28;20083;-81
2023/03/03 01:57:51;;;;;;;94.88;44.08;;;;;;;-0.82;100.00;101512.53;4959499;28;20334;-82
2023/03/03 02:00:21;;;;;;;92.43;44.28;;;;;;;-0.76;100.00;101525.16;4958895;28;20075;-81
2023/03/03 02:02:51;;;;;;;94.03;44.42;;;;;;;-0.78;100.00;101523.53;4960172;28;20126;-80
2023/03/03 02:05:21;;;;;;;92.85;44.90;;;;;;;-0.87;100.00;101521.31;4958864;28;20553;-81
2023/03/03 02:07:55;;;;;;;91.05;44.08;;;;;;;-0.85;100.00;101524.66;4953474;29;20477;-81
2023/03/03 02:10:38;;;;;;;94.93;43.72;;;;;;;-0.81;100.00;101514.22;4957056;28;20059;-80
2023/03/03 02:13:04;;;;;;;;;;;;;;;-0.61;100.00;101535.72;4956990;28;20051;-81
2023/03/03 02:15:34;;;;;;;98.30;41.63;;;;;;;-0.55;100.00;101538.03;4956827;28;19965;-82
2023/03/03 02:18:05;;;;;;;93.97;43.08;;;;;;;-0.44;100.00;101539.25;4957015;28;20105;-81
2023/03/03 02:20:44;;;;;;;97.32;44.28;;;;;;;-0.34;100.00;101537.97;4950169;29;20055;-81
2023/03/03 02:23:18;;;;;;;95.55;42.72;;;;;;;-0.26;100.00;101529.94;4957078;28;20114;-82
2023/03/03 02:25:52;;;;;;;98.95;45.00;;;;;;;-0.17;100.00;101528.72;4957105;28;20134;-81
2023/03/03 02:28:20;;;;;;;98.22;43.63;;;;;;;-0.15;100.00;101527.75;4957344;28;20063;-79
2023/03/03 02:30:47;;;;;;;104.43;44.65;;;;;;;-0.11;100.00;101537.00;4958294;28;20142;-81
2023/03/03 02:33:16;;;;;;;100.20;45.22;;;;;;;-0.04;100.00;101537.56;4958057;28;20083;-83
2023/03/03 02:35:43;;;;;;;104.88;44.65;;;;;;;0.04;100.00;101539.78;4958247;28;20047;-82
2023/03/03 02:38:23;;;;;;;103.68;44.88;;;;;;;0.02;100.00;101534.72;4959237;28;20051;-80
2023/03/03 02:40:59;;;;;;;97.90;43.30;;;;;;;0.08;100.00;101543.91;4958340;28;20082;-81
2023/03/03 02:43:33;;;;;;;98.07;44.83;;;;;;;0.11;100.00;101534.31;4959113;28;20051;-80
2023/03/03 02:46:00;;;;;;;96.40;44.15;;;;;;;0.15;100.00;101532.44;4958147;28;20501;-79
2023/03/03 02:48:27;;;;;;;97.72;42.92;;;;;;;0.18;100.00;101535.72;4957736;28;20146;-80
2023/03/03 02:50:53;;;;;;;88.20;41.80;;;;;;;0.21;100.00;101545.88;4959743;28;20082;-81
2023/03/03 02:53:20;;;;;;;98.10;42.22;;;;;;;0.19;100.00;101547.69;4962446;28;20114;-80
2023/03/03 02:55:46;;;;;;;93.25;42.92;;;;;;;0.21;100.00;101545.88;4961928;28;20166;-80
2023/03/03 02:58:13;;;;;;;94.75;42.58;;;;;;;0.22;100.00;101547.56;4960195;28;20137;-80
2023/03/03 03:00:41;;;;;;;96.53;43.20;;;;;;;0.24;100.00;101535.44;4961641;28;20485;-80
2023/03/03 03:03:08;;;;;;;96.18;41.92;;;;;;;0.25;100.00;101539.69;4961759;28;20091;-79
2023/03/03 03:05:37;;;;;;;89.68;40.47;;;;;;;0.20;100.00;101533.09;4961317;28;20055;-78
2023/03/03 03:08:04;;;;;;;93.28;40.40;;;;;;;0.20;100.00;101528.75;4961259;28;20051;-79
2023/03/03 03:10:31;;;;;;;93.38;41.92;;;;;;;0.18;100.00;101537.47;4961213;28;20131;-79
2023/03/03 03:12:58;;;;;;;99.70;42.35;;;;;;;0.24;100.00;101539.75;4962442;28;20114;-81
2023/03/03 03:15:27;;;;;;;97.43;42.25;;;;;;;0.31;100.00;101542.00;4962009;28;20167;-81
2023/03/03 03:17:59;;;;;;;94.55;41.13;;;;;;;0.28;100.00;101537.00;4953600;28;20118;-82
2023/03/03 03:20:26;;;;;;;93.43;40.55;;;;;;;0.26;100.00;101537.97;4961254;28;20082;-82
2023/03/03 03:22:52;;;;;;;88.90;37.97;;;;;;;0.21;100.00;101543.31;4961045;28;20103;-81
2023/03/03 03:25:22;;;;;;;94.28;41.10;;;;;;;0.21;100.00;101551.03;4961324;28;20083;-81
2023/03/03 03:27:51;;;;;;;90.28;39.30;;;;;;;0.18;100.00;101538.28;4961853;28;20074;-81
2023/03/03 03:30:19;;;;;;;89.57;40.22;;;;;;;0.24;100.00;101550.91;4959679;28;20418;-79
2023/03/03 03:32:46;;;;;;;98.45;43.30;;;;;;;0.27;100.00;101549.94;4961190;28;20058;-82
2023/03/03 03:35:14;;;;;;;86.60;40.92;;;;;;;0.20;100.00;101554.50;4963100;28;20051;-81
2023/03/03 03:37:41;;;;;;;93.47;39.78;;;;;;;0.19;100.00;101557.97;4963019;28;20089;-81
2023/03/03 03:40:08;;;;;;;88.22;38.45;;;;;;;0.18;100.00;101561.47;4962608;28;20086;-80
2023/03/03 03:42:36;;;;;;;88.20;39.50;;;;;;;0.18;100.00;101558.88;4962280;28;20161;-80
2023/03/03 03:45:03;;;;;;;87.22;38.95;;;;;;;0.17;100.00;101575.22;4961349;28;20142;-81
2023/03/03 03:47:29;;;;;;;85.95;38.17;;;;;;;0.21;100.00;101557.91;4958609;29;20079;-81
2023/03/03 03:49:56;;;;;;;86.38;41.28;;;;;;;0.28;100.00;101561.91;4957354;29;20135;-82
2023/03/03 03:52:24;;;;;;;90.75;39.60;;;;;;;0.31;100.00;101562.59;4954567;28;20043;-82
2023/03/03 03:54:51;;;;;;;85.68;39.55;;;;;;;0.38;100.00;101557.19;4962235;28;20079;-81
2023/03/03 03:57:17;;;;;;;88.82;37.75;;;;;;;0.32;100.00;101553.13;4960708;28;20055;-82
2023/03/03 03:59:49;;;;;;;86.82;38.47;;;;;;;0.30;100.00;101545.47;4960340;28;20094;-81
2023/03/03 04:02:21;;;;;;;89.10;39.93;;;;;;;0.30;100.00;101553.22;4959401;29;20137;-81
2023/03/03 04:05:21;;;;;;;88.90;37.92;;;;;;;0.12;100.00;101530.00;4959997;28;20310;-80
2023/03/03 04:08:13;;;;;;;91.40;42.33;;;;;;;0.31;100.00;101560.03;4954127;28;20069;-81
2023/03/03 04:10:43;;;;;;;87.15;38.72;;;;;;;0.15;100.00;101545.31;4954939;29;20075;-81
2023/03/03 04:13:09;;;;;;;84.78;38.65;;;;;;;0.17;100.00;101536.63;4955341;28;20127;-80
2023/03/03 04:15:36;;;;;;;85.35;39.33;;;;;;;0.16;100.00;101537.53;4958676;28;20055;-80
2023/03/03 04:18:06;;;;;;;92.45;39.83;;;;;;;0.08;100.00;101531.03;4958656;28;20074;-78
2023/03/03 04:20:36;;;;;;;84.53;38.78;;;;;;;0.26;100.00;101558.56;4950741;29;20292;-79
2023/03/03 04:23:04;;;;;;;89.35;37.22;;;;;;;0.27;100.00;101562.81;4960932;28;20057;-81
2023/03/03 04:25:30;;;;;;;88.55;40.58;;;;;;;0.28;100.00;101570.47;4960584;28;20059;-81
2023/03/03 04:27:57;;;;;;;86.68;38.28;;;;;;;0.25;100.00;101572.31;4960451;28;20079;-81
2023/03/03 04:30:23;;;;;;;81.82;35.90;;;;;;;0.26;100.00;101567.09;4959547;28;20481;-77
2023/03/03 04:32:52;;;;;;;85.45;34.88;;;;;;;0.26;100.00;101572.25;4958006;28;20087;-81
2023/03/03 04:35:21;;;;;;;84.28;36.80;;;;;;;0.22;100.00;101563.00;4958632;28;20086;-80
2023/03/03 04:37:51;;;;;;;81.38;37.33;;;;;;;0.29;100.00;101563.56;4959140;28;20093;-80
2023/03/03 04:40:19;;;;;;;88.60;38.03;;;;;;;0.26;100.00;101567.09;4957591;28;20510;-79
2023/03/03 04:42:46;;;;;;;88.70;38.25;;;;;;;0.24;100.00;101574.06;4958086;28;20134;-79
2023/03/03 04:45:12;;;;;;;86.80;37.40;;;;;;;0.30;100.00;101575.53;4960465;28;20098;-80
2023/03/03 04:47:39;;;;;;;94.30;39.30;;;;;;;0.22;100.00;101573.28;4961495;28;20082;-79
2023/03/03 04:50:08;;;;;;;90.07;38.50;;;;;;;0.25;100.00;101578.31;4959446;28;20232;-78
2023/03/03 04:52:35;;;;;;;90.30;39.00;;;;;;;0.06;100.00;101561.97;4950959;29;20051;-80
2023/03/03 04:55:01;;;;;;;92.88;38.97;;;;;;;0.27;100.00;101573.09;4958457;28;20130;-80
2023/03/03 04:57:31;;;;;;;80.43;36.35;;;;;;;0.23;100.00;101576.72;4959001;28;20131;-81
2023/03/03 04:59:58;;;;;;;84.60;35.72;;;;;;;0.30;100.00;101581.53;4958645;28;20153;-81
2023/03/03 05:02:25;;;;;;;85.10;37.03;;;;;;;0.25;100.00;101593.75;4956847;28;20517;-80
2023/03/03 05:04:51;;;;;;;80.55;35.60;;;;;;;0.24;100.00;101586.09;4957552;28;20087;-81
2023/03/03 05:07:19;;;;;;;84.88;34.97;;;;;;;0.26;100.00;101581.72;4957539;28;20119;-81
2023/03/03 05:09:46;;;;;;;85.18;35.67;;;;;;;0.24;100.00;101580.94;4987904;23;20078;-84
2023/03/03 05:12:13;;;;;;;84.53;37.83;;;;;;;0.21;100.00;101584.50;4982990;28;20054;-83
2023/03/03 05:14:41;;;;;;;82.03;36.50;;;;;;;0.26;100.00;101589.44;4983898;28;20051;-83
2023/03/03 05:17:08;;;;;;;82.60;36.70;;;;;;;0.16;100.00;101580.44;4984338;28;20054;-84
2023/03/03 05:19:34;;;;;;;79.13;36.90;;;;;;;0.10;100.00;101584.13;4984657;28;20055;-84
2023/03/03 05:22:01;;;;;;;85.03;36.80;;;;;;;0.23;100.00;101605.03;4983806;28;20046;-83
2023/03/03 05:24:28;;;;;;;82.75;34.97;;;;;;;0.15;100.00;101602.78;4983602;28;20055;-83
2023/03/03 05:26:55;;;;;;;70.50;33.33;;;;;;;-0.09;100.00;101586.66;4983725;28;20182;-83
2023/03/03 05:29:21;;;;;;;69.25;31.42;;;;;;;-0.03;100.00;101588.13;4983172;28;20169;-84
2023/03/03 05:31:50;;;;;;;75.35;33.22;;;;;;;0.18;100.00;101601.81;4982610;28;20074;-82
2023/03/03 05:34:16;;;;;;;74.15;33.40;;;;;;;0.19;100.00;101603.47;4982762;28;20050;-84
2023/03/03 05:36:43;;;;;;;72.40;32.25;;;;;;;0.14;100.00;101593.38;4982663;28;20508;-84
2023/03/03 05:39:09;;;;;;;63.70;29.33;;;;;;;0.10;100.00;101598.72;4983391;28;20127;-83
2023/03/03 05:41:36;;;;;;;72.70;32.03;;;;;;;0.09;100.00;101602.19;4983493;28;20061;-84
2023/03/03 05:44:03;;;;;;;69.63;31.52;;;;;;;0.17;100.00;101595.81;4982267;28;20482;-83
2023/03/03 05:46:30;;;;;;;70.63;31.10;;;;;;;0.17;100.00;101606.13;4982893;28;20050;-84
2023/03/03 05:48:58;;;;;;;68.53;31.90;;;;;;;0.16;100.00;101599.28;4982914;28;20070;-82
2023/03/03 05:51:24;;;;;;;70.43;31.05;;;;;;;0.09;100.00;101604.75;4982868;28;20054;-83
2023/03/03 05:53:51;;;;;;;71.88;31.77;;;;;;;0.15;100.00;101605.34;4982759;28;20397;-83
2023/03/03 05:56:18;;;;;;;69.55;31.58;;;;;;;0.12;100.00;101596.91;4982914;28;20078;-83
2023/03/03 05:58:45;;;;;;;68.85;30.83;;;;;;;0.13;100.00;101603.75;4982859;28;20045;-84
2023/03/03 06:01:11;;;;;;;63.92;31.88;;;;;;;0.13;100.00;101599.44;4983166;28;20054;-83
2023/03/03 06:03:38;;;;;;;64.75;29.92;;;;;;;0.22;100.00;101599.03;4983389;28;20051;-85
2023/03/03 06:06:07;;;;;;;66.95;31.25;;;;;;;0.15;100.00;101592.47;4982451;28;20093;-83
2023/03/03 06:08:34;;;;;;;66.55;29.48;;;;;;;0.08;100.00;101603.94;4981584;28;20078;-83
2023/03/03 06:11:01;;;;;;;67.80;29.52;;;;;;;0.14;100.00;101608.81;4983130;28;20046;-84
2023/03/03 06:13:29;;;;;;;75.45;32.90;;;;;;;0.10;100.00;101598.72;4983720;28;20105;-86
2023/03/03 06:15:55;;;;;;;65.82;31.10;;;;;;;0.18;100.00;101610.34;4984016;28;20065;-83
2023/03/03 06:18:22;;;;;;;72.40;31.85;;;;;;;0.11;100.00;101596.09;4982260;28;20074;-83
2023/03/03 06:20:51;;;;;;;76.63;33.25;;;;;;;0.14;100.00;101595.94;4983197;28;20062;-82
2023/03/03 06:23:19;;;;;;;67.85;31.40;;;;;;;0.24;100.00;101611.84;4985084;28;20058;-83
2023/03/03 06:25:46;;;;;;;69.78;31.30;;;;;;;0.25;100.00;101618.66;4983100;28;20070;-82
2023/03/03 06:28:13;;;;;;;65.68;30.60;;;;;;;0.26;100.00;101615.19;4983220;28;20078;-83
2023/03/03 06:30:40;;;;;;;66.18;29.83;;;;;;;0.19;100.00;101606.88;4982766;28;20070;-82
2023/03/03 06:33:06;;;;;;;69.57;30.42;;;;;;;0.31;100.00;101624.38;4982628;28;20057;-83
2023/03/03 06:35:33;;;;;;;63.88;29.63;;;;;;;0.17;100.00;101610.44;4983022;28;20074;-83
2023/03/03 06:38:00;;;;;;;65.40;30.88;;;;;;;0.18;100.00;101628.38;4983373;28;20051;-82
2023/03/03 06:40:28;;;;;;;69.95;31.35;;;;;;;0.18;100.00;101630.13;4982974;28;20073;-84
2023/03/03 06:42:55;;;;;;;71.95;32.40;;;;;;;0.25;100.00;101634.09;4983456;28;20106;-83
2023/03/03 06:45:22;;;;;;;66.75;29.98;;;;;;;0.24;100.00;101648.72;4984393;28;20051;-84
2023/03/03 06:47:48;;;;;;;66.05;31.33;;;;;;;0.24;100.00;101656.44;4983763;28;20062;-85
2023/03/03 06:50:20;;;;;;;67.03;29.73;;;;;;;0.21;100.00;101643.69;4982375;28;20051;-85
2023/03/03 06:52:47;;;;;;;63.85;29.85;;;;;;;0.21;100.00;101651.41;4983308;28;20093;-84
2023/03/03 06:55:21;;;;;;;68.28;30.13;;;;;;;0.27;100.00;101656.31;4983407;28;20106;-84
2023/03/03 06:57:49;;;;;;;67.88;30.60;;;;;;;0.35;100.00;101670.59;4982730;28;20050;-84
2023/03/03 07:00:19;;;;;;;65.32;30.00;;;;;;;0.39;100.00;101661.84;4983142;28;20062;-85
2023/03/03 07:02:45;;;;;;;68.30;31.30;;;;;;;0.29;100.00;101667.38;4982859;28;20065;-84
2023/03/03 07:05:15;;;;;;;64.55;29.45;;;;;;;0.30;100.00;101657.91;4982432;28;20054;-84
2023/03/03 07:07:42;;;;;;;64.65;30.33;;;;;;;0.33;100.00;101668.91;4982255;28;20062;-85
2023/03/03 07:10:23;;;;;;;65.07;30.70;;;;;;;0.43;100.00;101671.13;4982583;28;20078;-84
2023/03/03 07:12:52;;;;;;;66.32;29.80;;;;;;;0.33;100.00;101670.66;4982732;28;20489;-84
2023/03/03 07:15:23;;;;;;;64.30;29.00;;;;;;;0.48;100.00;101676.88;4982510;28;20084;-84
2023/03/03 07:17:56;;;;;;;66.10;30.23;;;;;;;0.45;100.00;101675.28;4982111;28;20082;-84
2023/03/03 07:20:28;;;;;;;65.38;28.88;;;;;;;0.48;100.00;101679.44;4982455;28;20450;-83
2023/03/03 07:23:02;;;;;;;60.67;27.52;;;;;;;0.48;100.00;101682.03;4982528;28;20129;-86
2023/03/03 07:25:35;;;;;;;69.43;30.83;;;;;;;0.35;100.00;101652.56;4979462;28;20473;-88
2023/03/03 07:28:19;;;;;;;67.47;31.02;;;;;;;0.51;100.00;101669.00;4981787;28;20074;-86
2023/03/03 07:30:46;;;;;;;63.88;29.63;;;;;;;0.48;100.00;101664.00;4986647;28;20391;-86
2023/03/03 07:33:24;;;;;;;69.95;32.05;;;;;;;0.47;100.00;101652.88;4982127;28;20043;-83
2023/03/03 07:35:52;;;;;;;71.55;32.25;;;;;;;0.57;100.00;101679.06;4979652;28;20146;-83
2023/03/03 07:38:25;;;;;;;71.93;32.50;;;;;;;0.58;100.00;101680.72;4981448;28;20130;-85
2023/03/03 07:40:55;;;;;;;74.30;31.95;;;;;;;0.62;100.00;101680.53;4977730;28;20081;-85
2023/03/03 07:43:30;;;;;;;62.83;28.75;;;;;;;0.53;100.00;101682.66;4963423;29;20130;-84
2023/03/03 07:46:02;;;;;;;65.57;30.42;;;;;;;0.52;100.00;101693.88;4966132;29;20079;-83
2023/03/03 07:48:34;;;;;;;65.47;29.65;;;;;;;0.51;100.00;101692.19;4964072;28;20082;-87
2023/03/03 07:51:12;;;;;;;56.30;27.17;;;;;;;0.56;100.00;101690.25;4964181;29;20059;-84
2023/03/03 07:53:39;;;;;;;68.53;27.73;;;;;;;0.41;100.00;101686.63;4964413;29;20050;-84
2023/03/03 07:56:16;;;;;;;67.68;28.88;;;;;;;0.61;100.00;101703.78;4967010;28;20631;-83
2023/03/03 07:58:45;;;;;;;63.63;28.77;;;;;;;0.68;100.00;101702.63;4963107;28;20031;-85
2023/03/03 08:01:38;;;;;;;61.13;27.42;;;;;;;0.56;100.00;101710.88;4964786;29;20066;-85
2023/03/03 08:04:09;;;;;;;;;;;;;;;0.63;100.00;101718.25;4964422;28;20094;-85
2023/03/03 08:06:47;;;;;;;61.58;28.75;;;;;;;0.40;100.00;101681.53;4984509;28;20026;-84
2023/03/03 08:09:36;;;;;;;67.10;30.98;;;;;;;0.49;100.00;101696.56;4983981;28;20049;-87
2023/03/03 08:12:33;;;;;;;65.57;27.67;;;;;;;0.59;100.00;101697.84;4979243;28;20098;-85
2023/03/03 08:15:16;;;;;;;64.68;29.20;;;;;;;0.77;100.00;101707.38;4980368;28;20050;-85
2023/03/03 08:17:44;;;;;;;64.25;28.85;;;;;;;0.74;100.00;101704.94;4984560;28;20456;-85
2023/03/03 08:20:46;;;;;;;67.80;28.30;;;;;;;0.77;100.00;101725.41;4984095;28;20062;-85
2023/03/03 08:23:14;;;;;;;61.88;27.55;;;;;;;0.88;100.00;101727.53;4925819;29;20044;-83
2023/03/03 08:25:41;;;;;;;70.80;30.77;;;;;;;0.83;100.00;101708.84;4924013;29;20100;-87
2023/03/03 08:28:09;;;;;;;69.53;31.55;;;;;;;0.76;100.00;101708.28;4950394;28;20690;-86
2023/03/03 08:30:52;;;;;;;70.63;32.03;;;;;;;0.70;100.00;101703.38;4983020;28;20101;-88
2023/03/03 08:33:19;;;;;;;78.00;31.35;;;;;;;0.88;100.00;101730.94;4982242;28;20473;-88
2023/03/03 08:35:52;;;;;;;68.38;31.48;;;;;;;0.56;100.00;101714.28;4982110;28;20077;-89
2023/03/03 08:38:21;;;;;;;71.90;31.00;;;;;;;0.83;100.00;101720.00;4981502;28;20047;-86
2023/03/03 08:40:53;;;;;;;68.88;32.50;;;;;;;1.01;100.00;101744.09;4982013;28;20065;-89
2023/03/03 08:43:21;;;;;;;64.53;28.63;;;;;;;1.07;100.00;101741.25;4982624;28;20387;-86
2023/03/03 08:45:51;;;;;;;66.93;29.85;;;;;;;1.17;99.95;101737.34;4982366;28;20121;-85
2023/03/03 08:48:19;;;;;;;65.07;30.25;;;;;;;1.15;99.73;101731.44;4965367;28;20520;-87
2023/03/03 08:50:49;;;;;;;66.50;29.15;;;;;;;1.25;99.34;101748.16;4966122;28;20062;-86
2023/03/03 08:53:18;;;;;;;67.80;29.40;;;;;;;1.14;98.86;101744.38;4967092;28;20543;-87
2023/03/03 08:55:45;;;;;;;56.72;27.45;;;;;;;1.17;98.49;101752.00;4975907;28;20046;-84
2023/03/03 08:58:12;;;;;;;55.03;26.33;;;;;;;1.04;98.46;101743.13;4978448;28;20095;-85
2023/03/03 09:00:39;;;;;;;61.65;27.65;;;;;;;1.06;98.46;101742.16;4978237;28;20047;-86
2023/03/03 09:03:08;;;;;;;59.83;27.52;;;;;;;1.13;98.53;101735.00;4964331;28;20051;-87
2023/03/03 09:05:38;;;;;;;57.75;25.98;;;;;;;1.24;98.20;101755.97;4962501;28;20102;-87
2023/03/03 09:08:08;;;;;;;61.97;27.23;;;;;;;1.20;98.30;101747.53;4962073;28;20410;-85
2023/03/03 09:10:35;;;;;;;58.90;27.35;;;;;;;1.24;98.03;101767.13;4961827;28;20047;-86
2023/03/03 09:13:07;;;;;;;63.20;28.35;;;;;;;1.28;98.27;101750.63;4962876;28;20094;-86
2023/03/03 09:15:35;;;;;;;;;;;;;;;1.36;97.58;101768.31;4962796;28;20429;-85
2023/03/03 09:18:13;;;;;;;55.38;25.00;;;;;;;1.57;97.36;101769.91;4962740;28;19923;-86
2023/03/03 09:20:42;;;;;;;55.13;25.70;;;;;;;1.60;96.51;101764.59;4962199;28;20083;-85
2023/03/03 09:23:30;;;;;;;55.67;25.40;;;;;;;1.40;96.25;101754.38;4961041;28;20047;-85
2023/03/03 09:25:57;;;;;;;53.10;24.17;;;;;;;1.42;95.89;101744.00;4961202;28;20098;-87
2023/03/03 09:28:26;;;;;;;57.20;24.83;;;;;;;1.41;95.71;101766.38;4962038;28;20058;-85
2023/03/03 09:30:58;;;;;;;58.83;26.90;;;;;;;1.54;95.79;101751.97;4961973;28;20059;-86
2023/03/03 09:33:29;;;;;;;49.65;24.52;;;;;;;1.58;94.91;101738.03;4962076;28;20047;-85
2023/03/03 09:36:04;;;;;;;50.55;24.35;;;;;;;1.70;94.87;101767.59;4961227;28;20051;-85
2023/03/03 09:38:32;;;;;;;45.97;22.42;;;;;;;1.63;94.46;101759.31;4962847;28;20055;-86
2023/03/03 09:41:16;;;;;;;52.53;24.30;;;;;;;1.65;94.22;101767.81;4961757;28;20102;-87
2023/03/03 09:43:55;;;;;;;49.17;23.00;;;;;;;1.74;94.39;101763.13;4963130;28;20485;-86
2023/03/03 09:46:33;;;;;;;59.00;25.77;;;;;;;1.87;94.16;101759.06;4962066;29;20059;-86
2023/03/03 09:49:15;;;;;;;63.25;27.83;;;;;;;2.04;93.92;101761.66;4961992;28;20118;-87
2023/03/03 09:51:57;;;;;;;64.45;28.95;;;;;;;2.11;93.69;101786.28;4962309;28;20050;-87
2023/03/03 09:54:53;;;;;;;65.38;27.45;;;;;;;2.19;93.35;101801.41;4962166;28;20055;-87
2023/03/03 10:05:21;;;;;;;61.40;27.52;;;;;;;2.18;93.66;101808.31;4917339;29;20125;-79
2023/03/03 10:11:56;;;;;;;62.38;27.55;;;;;;;2.06;93.05;101777.91;4941350;29;20055;-82
2023/03/03 10:25:27;;;;;;;70.23;26.63;;;;;;;2.06;92.70;101792.56;4888465;29;20133;-81
2023/03/03 10:28:36;;;;;;;72.05;29.77;;;;;;;2.31;93.10;101798.25;4960221;28;20078;-81
2023/03/03 10:31:51;;;;;;;67.38;29.85;;;;;;;2.33;92.94;101799.84;4972536;28;20055;-82
2023/03/03 10:45:22;;;;;;;75.75;29.23;;;;;;;2.49;91.95;101810.25;4965698;28;20077;-82
2023/03/03 10:58:32;;;;;;;69.25;27.33;;;;;;;2.55;91.24;101791.03;4943160;29;20483;-82
2023/03/03 11:04:57;;;;;;;67.28;28.52;;;;;;;2.82;90.06;101779.31;4975869;28;20047;-81
2023/03/03 11:14:15;;;;;;;64.03;28.27;;;;;;;2.76;90.05;101820.13;4961578;28;20055;-80
2023/03/03 11:17:06;;;;;;;64.50;27.52;;;;;;;2.69;90.30;101817.03;4984100;28;20054;-80
2023/03/03 11:26:44;;;;;;;68.80;28.60;;;;;;;2.28;90.59;101813.88;4945013;29;20055;-80
2023/03/03 11:29:58;;;;;;;76.00;29.33;;;;;;;2.55;90.61;101801.34;4936255;29;20078;-81
2023/03/03 11:36:09;;;;;;;62.20;28.00;;;;;;;2.65;90.18;101806.00;4948917;28;20066;-81
2023/03/03 11:39:17;;;;;;;66.78;28.60;;;;;;;2.61;90.23;101813.97;4968153;28;20106;-82
2023/03/03 11:46:12;;;;;;;;;;;;;;;;;;;;;
2023/03/03 11:49:10;;;;;;;65.22;27.38;;;;;;;2.90;89.74;101778.88;4969702;28;20107;-82
2023/03/03 11:52:12;;;;;;;71.28;29.70;;;;;;;2.93;89.09;101795.09;4937064;28;20051;-82
2023/03/03 12:42:22;;;;;;;61.88;27.63;;;;;;;3.69;85.39;101755.72;4968390;28;20054;-81
2023/03/03 12:45:22;;;;;;;71.88;30.42;;;;;;;3.84;84.94;101755.69;4978016;28;20078;-79
2023/03/03 12:47:53;;;;;;;75.32;31.55;;;;;;;3.75;84.83;101737.28;4983228;28;20125;-81
2023/03/03 12:50:54;;;;;;;74.38;30.92;;;;;;;3.63;84.82;101747.38;4980735;28;20078;-80
2023/03/03 12:54:07;;;;;;;73.35;31.17;;;;;;;3.46;84.57;101731.09;4973067;28;20049;-82
2023/03/03 12:57:15;;;;;;;71.28;30.88;;;;;;;3.55;84.65;101728.84;4983390;28;20142;-80
2023/03/03 13:04:13;;;;;;;;;;;;;;;;;;;;;
2023/03/03 13:10:09;;;;;;;71.60;31.30;;;;;;;3.71;84.29;101739.19;4980041;28;20059;-81
2023/03/03 13:13:00;;;;;;;68.03;32.00;;;;;;;3.80;84.52;101745.59;4976051;28;20057;-82
2023/03/03 13:15:48;;;;;;;75.10;31.85;;;;;;;3.87;84.42;101747.75;4984413;28;20077;-82
2023/03/03 13:18:53;;;;;;;73.38;31.98;;;;;;;3.62;83.70;101714.66;4984089;28;20148;-80
2023/03/03 13:32:29;;;;;;;74.05;31.90;;;;;;;4.29;82.52;101739.28;4969278;28;20078;-81
2023/03/03 13:35:43;;;;;;;;;;;;;;;;;;;;;
2023/03/03 13:45:33;;;;;;;78.20;33.05;;;;;;;4.51;81.06;101705.19;4962197;28;20454;-81
2023/03/03 13:48:34;;;;;;;85.57;33.72;;;;;;;4.63;80.95;101719.19;4961571;28;20051;-81
2023/03/03 13:51:42;;;;;;;75.95;32.80;;;;;;;4.44;81.05;101716.84;4973565;28;20051;-80
2023/03/03 13:54:56;;;;;;;73.75;33.58;;;;;;;4.26;81.85;101718.75;4984767;28;20074;-81
2023/03/03 13:57:59;;;;;;;77.95;35.78;;;;;;;4.25;81.38;101718.88;4985440;28;20050;-81
2023/03/03 14:01:09;;;;;;;76.43;34.45;;;;;;;4.61;81.43;101718.44;4985200;28;20164;-82
2023/03/03 14:04:14;;;;;;;72.40;33.05;;;;;;;4.29;80.58;101715.16;4974486;28;20047;-82